sensor_id;sensor_type;location;lat;lon;timestamp;P1;durP1;ratioP1;P2;durP2;ratioP2
71303;SDS011;59091;47.446;19.148;2024-03-06T00:00:24;35.10;;;20.73;;
71303;SDS011;59091;47.446;19.148;2024-03-06T00:02:50;37.30;;;20.02;;
71303;SDS011;59091;47.446;19.148;2024-03-06T00:05:16;37.45;;;21.40;;
71303;SDS011;59091;47.446;19.148;2024-03-06T00:07:41;37.92;;;21.17;;
71303;SDS011;59091;47.446;19.148;2024-03-06T00:10:06;36.85;;;20.90;;
71303;SDS011;59091;47.446;19.148;2024-03-06T00:12:32;38.55;;;21.10;;
71303;SDS011;59091;47.446;19.148;2024-03-06T00:14:58;38.67;;;20.95;;
71303;SDS011;59091;47.446;19.148;2024-03-06T00:17:23;37.67;;;20.83;;
71303;SDS011;59091;47.446;19.148;2024-03-06T00:19:49;38.58;;;21.23;;
71303;SDS011;59091;47.446;19.148;2024-03-06T00:22:14;39.35;;;22.05;;
71303;SDS011;59091;47.446;19.148;2024-03-06T00:24:40;40.17;;;21.98;;
71303;SDS011;59091;47.446;19.148;2024-03-06T00:27:05;43.15;;;23.27;;
71303;SDS011;59091;47.446;19.148;2024-03-06T00:29:31;39.97;;;22.00;;
71303;SDS011;59091;47.446;19.148;2024-03-06T00:31:56;41.95;;;23.08;;
71303;SDS011;59091;47.446;19.148;2024-03-06T00:34:22;40.17;;;22.02;;
71303;SDS011;59091;47.446;19.148;2024-03-06T00:36:47;46.03;;;22.58;;
71303;SDS011;59091;47.446;19.148;2024-03-06T00:39:13;45.17;;;22.60;;
71303;SDS011;59091;47.446;19.148;2024-03-06T00:41:41;41.22;;;21.00;;
71303;SDS011;59091;47.446;19.148;2024-03-06T00:44:07;44.53;;;23.05;;
71303;SDS011;59091;47.446;19.148;2024-03-06T00:46:32;43.25;;;23.20;;
71303;SDS011;59091;47.446;19.148;2024-03-06T00:48:58;44.00;;;22.08;;
71303;SDS011;59091;47.446;19.148;2024-03-06T00:51:23;40.08;;;21.52;;
71303;SDS011;59091;47.446;19.148;2024-03-06T00:53:49;44.58;;;23.20;;
71303;SDS011;59091;47.446;19.148;2024-03-06T00:56:14;39.03;;;22.27;;
71303;SDS011;59091;47.446;19.148;2024-03-06T00:58:39;42.13;;;22.98;;
71303;SDS011;59091;47.446;19.148;2024-03-06T01:01:05;39.78;;;21.73;;
71303;SDS011;59091;47.446;19.148;2024-03-06T01:03:30;39.28;;;22.02;;
71303;SDS011;59091;47.446;19.148;2024-03-06T01:05:56;39.88;;;22.27;;
71303;SDS011;59091;47.446;19.148;2024-03-06T01:08:24;44.03;;;21.92;;
71303;SDS011;59091;47.446;19.148;2024-03-06T01:10:53;41.65;;;21.90;;
71303;SDS011;59091;47.446;19.148;2024-03-06T01:13:19;42.35;;;22.48;;
71303;SDS011;59091;47.446;19.148;2024-03-06T01:15:45;42.92;;;22.80;;
71303;SDS011;59091;47.446;19.148;2024-03-06T01:18:10;40.55;;;22.25;;
71303;SDS011;59091;47.446;19.148;2024-03-06T01:20:36;41.53;;;22.50;;
71303;SDS011;59091;47.446;19.148;2024-03-06T01:23:02;38.25;;;21.75;;
71303;SDS011;59091;47.446;19.148;2024-03-06T01:25:27;41.53;;;21.73;;
71303;SDS011;59091;47.446;19.148;2024-03-06T01:27:53;40.58;;;21.67;;
71303;SDS011;59091;47.446;19.148;2024-03-06T01:30:18;43.38;;;22.25;;
71303;SDS011;59091;47.446;19.148;2024-03-06T01:32:44;40.17;;;22.10;;
71303;SDS011;59091;47.446;19.148;2024-03-06T01:35:09;37.85;;;21.15;;
71303;SDS011;59091;47.446;19.148;2024-03-06T01:37:35;43.90;;;21.95;;
71303;SDS011;59091;47.446;19.148;2024-03-06T01:40:00;48.45;;;22.92;;
71303;SDS011;59091;47.446;19.148;2024-03-06T01:42:26;38.30;;;22.08;;
71303;SDS011;59091;47.446;19.148;2024-03-06T01:44:51;41.80;;;22.15;;
71303;SDS011;59091;47.446;19.148;2024-03-06T01:47:16;43.13;;;23.73;;
71303;SDS011;59091;47.446;19.148;2024-03-06T01:49:42;42.88;;;22.92;;
71303;SDS011;59091;47.446;19.148;2024-03-06T01:52:09;43.00;;;23.15;;
71303;SDS011;59091;47.446;19.148;2024-03-06T01:54:36;41.83;;;23.27;;
71303;SDS011;59091;47.446;19.148;2024-03-06T01:57:03;40.17;;;22.58;;
71303;SDS011;59091;47.446;19.148;2024-03-06T01:59:29;46.42;;;23.85;;
71303;SDS011;59091;47.446;19.148;2024-03-06T02:01:55;41.55;;;23.17;;
71303;SDS011;59091;47.446;19.148;2024-03-06T02:04:21;44.90;;;24.95;;
71303;SDS011;59091;47.446;19.148;2024-03-06T02:06:47;44.15;;;22.90;;
71303;SDS011;59091;47.446;19.148;2024-03-06T02:09:13;47.83;;;24.92;;
71303;SDS011;59091;47.446;19.148;2024-03-06T02:11:39;41.53;;;23.40;;
71303;SDS011;59091;47.446;19.148;2024-03-06T02:14:05;48.83;;;23.45;;
71303;SDS011;59091;47.446;19.148;2024-03-06T02:16:34;40.92;;;23.65;;
71303;SDS011;59091;47.446;19.148;2024-03-06T02:19:00;48.70;;;24.10;;
71303;SDS011;59091;47.446;19.148;2024-03-06T02:21:26;44.05;;;23.42;;
71303;SDS011;59091;47.446;19.148;2024-03-06T02:23:51;44.60;;;24.30;;
71303;SDS011;59091;47.446;19.148;2024-03-06T02:26:17;43.42;;;24.80;;
71303;SDS011;59091;47.446;19.148;2024-03-06T02:28:50;49.75;;;24.42;;
71303;SDS011;59091;47.446;19.148;2024-03-06T02:31:19;44.47;;;23.52;;
71303;SDS011;59091;47.446;19.148;2024-03-06T02:33:45;47.13;;;24.80;;
71303;SDS011;59091;47.446;19.148;2024-03-06T02:36:17;43.80;;;24.25;;
71303;SDS011;59091;47.446;19.148;2024-03-06T02:38:43;49.00;;;23.65;;
71303;SDS011;59091;47.446;19.148;2024-03-06T02:41:09;47.22;;;23.40;;
71303;SDS011;59091;47.446;19.148;2024-03-06T02:43:35;46.10;;;24.45;;
71303;SDS011;59091;47.446;19.148;2024-03-06T02:46:01;47.78;;;23.48;;
71303;SDS011;59091;47.446;19.148;2024-03-06T02:48:27;46.13;;;22.85;;
71303;SDS011;59091;47.446;19.148;2024-03-06T02:50:52;43.10;;;23.13;;
71303;SDS011;59091;47.446;19.148;2024-03-06T02:53:18;41.67;;;23.35;;
71303;SDS011;59091;47.446;19.148;2024-03-06T02:55:43;47.10;;;22.30;;
71303;SDS011;59091;47.446;19.148;2024-03-06T02:58:09;42.70;;;22.67;;
71303;SDS011;59091;47.446;19.148;2024-03-06T03:00:35;46.17;;;23.65;;
71303;SDS011;59091;47.446;19.148;2024-03-06T03:03:01;44.67;;;22.77;;
71303;SDS011;59091;47.446;19.148;2024-03-06T03:05:26;41.22;;;22.90;;
71303;SDS011;59091;47.446;19.148;2024-03-06T03:07:52;39.15;;;21.92;;
71303;SDS011;59091;47.446;19.148;2024-03-06T03:10:18;46.47;;;22.95;;
71303;SDS011;59091;47.446;19.148;2024-03-06T03:12:43;47.30;;;24.02;;
71303;SDS011;59091;47.446;19.148;2024-03-06T03:15:09;47.80;;;23.00;;
71303;SDS011;59091;47.446;19.148;2024-03-06T03:17:35;43.10;;;22.50;;
71303;SDS011;59091;47.446;19.148;2024-03-06T03:20:01;43.90;;;21.98;;
71303;SDS011;59091;47.446;19.148;2024-03-06T03:22:38;41.85;;;22.77;;
71303;SDS011;59091;47.446;19.148;2024-03-06T03:25:08;46.60;;;21.95;;
71303;SDS011;59091;47.446;19.148;2024-03-06T03:27:34;40.65;;;21.65;;
71303;SDS011;59091;47.446;19.148;2024-03-06T03:30:02;41.85;;;21.83;;
71303;SDS011;59091;47.446;19.148;2024-03-06T03:32:28;40.10;;;22.75;;
71303;SDS011;59091;47.446;19.148;2024-03-06T03:34:53;46.47;;;22.98;;
71303;SDS011;59091;47.446;19.148;2024-03-06T03:37:19;43.45;;;23.35;;
71303;SDS011;59091;47.446;19.148;2024-03-06T03:39:44;44.63;;;22.05;;
71303;SDS011;59091;47.446;19.148;2024-03-06T03:42:10;44.97;;;22.77;;
71303;SDS011;59091;47.446;19.148;2024-03-06T03:44:35;39.35;;;22.35;;
71303;SDS011;59091;47.446;19.148;2024-03-06T03:47:01;40.75;;;23.10;;
71303;SDS011;59091;47.446;19.148;2024-03-06T03:49:27;44.42;;;23.05;;
71303;SDS011;59091;47.446;19.148;2024-03-06T03:51:52;42.55;;;22.73;;
71303;SDS011;59091;47.446;19.148;2024-03-06T03:54:18;45.92;;;22.65;;
71303;SDS011;59091;47.446;19.148;2024-03-06T03:56:43;43.38;;;22.67;;
71303;SDS011;59091;47.446;19.148;2024-03-06T03:59:08;41.92;;;22.17;;
71303;SDS011;59091;47.446;19.148;2024-03-06T04:01:34;41.70;;;22.50;;
71303;SDS011;59091;47.446;19.148;2024-03-06T04:03:59;39.67;;;22.23;;
71303;SDS011;59091;47.446;19.148;2024-03-06T04:06:25;48.33;;;23.02;;
71303;SDS011;59091;47.446;19.148;2024-03-06T04:08:50;44.10;;;22.63;;
71303;SDS011;59091;47.446;19.148;2024-03-06T04:11:15;45.75;;;23.45;;
71303;SDS011;59091;47.446;19.148;2024-03-06T04:13:41;41.38;;;22.92;;
71303;SDS011;59091;47.446;19.148;2024-03-06T04:16:06;44.03;;;22.67;;
71303;SDS011;59091;47.446;19.148;2024-03-06T04:18:32;47.42;;;23.92;;
71303;SDS011;59091;47.446;19.148;2024-03-06T04:21:06;46.50;;;24.02;;
71303;SDS011;59091;47.446;19.148;2024-03-06T04:23:32;46.50;;;23.77;;
71303;SDS011;59091;47.446;19.148;2024-03-06T04:26:01;45.70;;;22.38;;
71303;SDS011;59091;47.446;19.148;2024-03-06T04:28:27;45.60;;;21.98;;
71303;SDS011;59091;47.446;19.148;2024-03-06T04:30:52;41.17;;;22.05;;
71303;SDS011;59091;47.446;19.148;2024-03-06T04:33:17;44.40;;;22.15;;
71303;SDS011;59091;47.446;19.148;2024-03-06T04:35:43;42.28;;;21.60;;
71303;SDS011;59091;47.446;19.148;2024-03-06T04:38:08;41.45;;;23.15;;
71303;SDS011;59091;47.446;19.148;2024-03-06T04:40:34;42.53;;;21.80;;
71303;SDS011;59091;47.446;19.148;2024-03-06T04:43:02;41.22;;;23.08;;
71303;SDS011;59091;47.446;19.148;2024-03-06T04:45:28;41.53;;;22.95;;
71303;SDS011;59091;47.446;19.148;2024-03-06T04:47:54;45.17;;;23.65;;
71303;SDS011;59091;47.446;19.148;2024-03-06T04:50:19;46.35;;;23.02;;
71303;SDS011;59091;47.446;19.148;2024-03-06T04:52:45;41.47;;;22.77;;
71303;SDS011;59091;47.446;19.148;2024-03-06T04:55:10;45.40;;;23.13;;
71303;SDS011;59091;47.446;19.148;2024-03-06T04:57:37;45.60;;;23.50;;
71303;SDS011;59091;47.446;19.148;2024-03-06T05:00:04;46.88;;;22.77;;
71303;SDS011;59091;47.446;19.148;2024-03-06T05:02:33;46.20;;;22.38;;
71303;SDS011;59091;47.446;19.148;2024-03-06T05:05:00;48.20;;;23.73;;
71303;SDS011;59091;47.446;19.148;2024-03-06T05:07:27;47.58;;;24.10;;
71303;SDS011;59091;47.446;19.148;2024-03-06T05:09:53;50.35;;;23.85;;
71303;SDS011;59091;47.446;19.148;2024-03-06T05:12:18;52.13;;;24.50;;
71303;SDS011;59091;47.446;19.148;2024-03-06T05:14:44;46.42;;;24.70;;
71303;SDS011;59091;47.446;19.148;2024-03-06T05:17:09;46.55;;;24.02;;
71303;SDS011;59091;47.446;19.148;2024-03-06T05:19:35;52.25;;;25.15;;
71303;SDS011;59091;47.446;19.148;2024-03-06T05:22:02;49.97;;;24.80;;
71303;SDS011;59091;47.446;19.148;2024-03-06T05:24:28;45.90;;;23.65;;
71303;SDS011;59091;47.446;19.148;2024-03-06T05:26:54;49.72;;;24.58;;
71303;SDS011;59091;47.446;19.148;2024-03-06T05:29:20;54.90;;;24.35;;
71303;SDS011;59091;47.446;19.148;2024-03-06T05:31:45;50.10;;;24.50;;
71303;SDS011;59091;47.446;19.148;2024-03-06T05:34:10;52.58;;;22.63;;
71303;SDS011;59091;47.446;19.148;2024-03-06T05:36:36;49.95;;;24.27;;
71303;SDS011;59091;47.446;19.148;2024-03-06T05:39:01;43.80;;;23.50;;
71303;SDS011;59091;47.446;19.148;2024-03-06T05:41:31;50.38;;;23.05;;
71303;SDS011;59091;47.446;19.148;2024-03-06T05:43:57;52.05;;;21.85;;
71303;SDS011;59091;47.446;19.148;2024-03-06T05:46:22;42.70;;;22.88;;
71303;SDS011;59091;47.446;19.148;2024-03-06T05:48:48;46.20;;;23.92;;
71303;SDS011;59091;47.446;19.148;2024-03-06T05:51:14;50.42;;;22.17;;
71303;SDS011;59091;47.446;19.148;2024-03-06T05:53:40;44.05;;;22.90;;
71303;SDS011;59091;47.446;19.148;2024-03-06T05:56:07;48.40;;;24.02;;
71303;SDS011;59091;47.446;19.148;2024-03-06T05:58:33;47.47;;;23.42;;
71303;SDS011;59091;47.446;19.148;2024-03-06T06:00:59;49.83;;;24.80;;
71303;SDS011;59091;47.446;19.148;2024-03-06T06:03:26;48.05;;;22.77;;
71303;SDS011;59091;47.446;19.148;2024-03-06T06:05:53;47.22;;;24.25;;
71303;SDS011;59091;47.446;19.148;2024-03-06T06:08:18;56.55;;;25.98;;
71303;SDS011;59091;47.446;19.148;2024-03-06T06:10:44;47.20;;;24.42;;
71303;SDS011;59091;47.446;19.148;2024-03-06T06:13:09;57.13;;;26.25;;
71303;SDS011;59091;47.446;19.148;2024-03-06T06:15:37;47.55;;;23.88;;
71303;SDS011;59091;47.446;19.148;2024-03-06T06:18:06;48.78;;;24.92;;
71303;SDS011;59091;47.446;19.148;2024-03-06T06:20:31;49.13;;;24.60;;
71303;SDS011;59091;47.446;19.148;2024-03-06T06:22:57;45.70;;;25.70;;
71303;SDS011;59091;47.446;19.148;2024-03-06T06:25:23;50.58;;;24.95;;
71303;SDS011;59091;47.446;19.148;2024-03-06T06:27:48;51.65;;;25.42;;
71303;SDS011;59091;47.446;19.148;2024-03-06T06:30:14;49.25;;;25.25;;
71303;SDS011;59091;47.446;19.148;2024-03-06T06:32:41;51.35;;;26.23;;
71303;SDS011;59091;47.446;19.148;2024-03-06T06:35:08;46.92;;;26.10;;
71303;SDS011;59091;47.446;19.148;2024-03-06T06:37:34;52.03;;;27.10;;
71303;SDS011;59091;47.446;19.148;2024-03-06T06:40:00;51.28;;;26.17;;
71303;SDS011;59091;47.446;19.148;2024-03-06T06:42:31;45.80;;;24.63;;
71303;SDS011;59091;47.446;19.148;2024-03-06T06:45:00;48.97;;;25.25;;
71303;SDS011;59091;47.446;19.148;2024-03-06T06:47:26;44.55;;;24.95;;
71303;SDS011;59091;47.446;19.148;2024-03-06T06:49:52;44.45;;;24.15;;
71303;SDS011;59091;47.446;19.148;2024-03-06T06:52:17;45.92;;;24.13;;
71303;SDS011;59091;47.446;19.148;2024-03-06T06:54:43;52.22;;;25.15;;
71303;SDS011;59091;47.446;19.148;2024-03-06T06:57:08;50.50;;;25.75;;
71303;SDS011;59091;47.446;19.148;2024-03-06T06:59:34;53.58;;;26.92;;
71303;SDS011;59091;47.446;19.148;2024-03-06T07:02:00;56.22;;;26.77;;
71303;SDS011;59091;47.446;19.148;2024-03-06T07:04:25;61.08;;;28.70;;
71303;SDS011;59091;47.446;19.148;2024-03-06T07:06:51;47.08;;;23.00;;
71303;SDS011;59091;47.446;19.148;2024-03-06T07:09:16;54.13;;;25.90;;
71303;SDS011;59091;47.446;19.148;2024-03-06T07:11:43;50.03;;;24.50;;
71303;SDS011;59091;47.446;19.148;2024-03-06T07:14:09;44.50;;;23.17;;
71303;SDS011;59091;47.446;19.148;2024-03-06T07:16:40;48.05;;;24.02;;
71303;SDS011;59091;47.446;19.148;2024-03-06T07:19:07;44.38;;;23.35;;
71303;SDS011;59091;47.446;19.148;2024-03-06T07:21:32;44.35;;;24.48;;
71303;SDS011;59091;47.446;19.148;2024-03-06T07:23:58;44.60;;;23.30;;
71303;SDS011;59091;47.446;19.148;2024-03-06T07:26:23;49.78;;;24.02;;
71303;SDS011;59091;47.446;19.148;2024-03-06T07:28:49;42.28;;;23.33;;
71303;SDS011;59091;47.446;19.148;2024-03-06T07:31:14;38.75;;;22.20;;
71303;SDS011;59091;47.446;19.148;2024-03-06T07:33:39;36.83;;;20.73;;
71303;SDS011;59091;47.446;19.148;2024-03-06T07:36:05;43.42;;;21.23;;
71303;SDS011;59091;47.446;19.148;2024-03-06T07:38:31;37.20;;;21.75;;
71303;SDS011;59091;47.446;19.148;2024-03-06T07:40:56;37.45;;;21.30;;
71303;SDS011;59091;47.446;19.148;2024-03-06T07:43:21;31.33;;;20.00;;
71303;SDS011;59091;47.446;19.148;2024-03-06T07:45:48;36.58;;;19.95;;
71303;SDS011;59091;47.446;19.148;2024-03-06T07:48:14;38.60;;;20.58;;
71303;SDS011;59091;47.446;19.148;2024-03-06T07:50:39;37.25;;;20.85;;
71303;SDS011;59091;47.446;19.148;2024-03-06T07:53:05;36.05;;;20.88;;
71303;SDS011;59091;47.446;19.148;2024-03-06T07:55:30;31.52;;;20.10;;
71303;SDS011;59091;47.446;19.148;2024-03-06T07:57:56;36.33;;;19.85;;
71303;SDS011;59091;47.446;19.148;2024-03-06T08:00:21;37.78;;;21.23;;
71303;SDS011;59091;47.446;19.148;2024-03-06T08:02:47;32.65;;;19.85;;
71303;SDS011;59091;47.446;19.148;2024-03-06T08:05:16;33.00;;;18.98;;
71303;SDS011;59091;47.446;19.148;2024-03-06T08:07:42;29.40;;;18.88;;
71303;SDS011;59091;47.446;19.148;2024-03-06T08:10:10;31.98;;;18.65;;
71303;SDS011;59091;47.446;19.148;2024-03-06T08:12:40;36.50;;;19.95;;
71303;SDS011;59091;47.446;19.148;2024-03-06T08:15:07;27.30;;;17.63;;
71303;SDS011;59091;47.446;19.148;2024-03-06T08:17:34;29.02;;;17.45;;
71303;SDS011;59091;47.446;19.148;2024-03-06T08:20:01;28.00;;;17.95;;
71303;SDS011;59091;47.446;19.148;2024-03-06T08:22:28;27.13;;;16.70;;
71303;SDS011;59091;47.446;19.148;2024-03-06T08:24:53;29.25;;;15.65;;
71303;SDS011;59091;47.446;19.148;2024-03-06T08:27:19;26.30;;;16.42;;
71303;SDS011;59091;47.446;19.148;2024-03-06T08:29:45;29.23;;;16.52;;
71303;SDS011;59091;47.446;19.148;2024-03-06T08:32:11;32.65;;;17.63;;
71303;SDS011;59091;47.446;19.148;2024-03-06T08:34:36;31.48;;;16.50;;
71303;SDS011;59091;47.446;19.148;2024-03-06T08:37:01;27.15;;;15.85;;
71303;SDS011;59091;47.446;19.148;2024-03-06T08:39:27;26.27;;;15.23;;
71303;SDS011;59091;47.446;19.148;2024-03-06T08:41:52;23.65;;;14.75;;
71303;SDS011;59091;47.446;19.148;2024-03-06T08:44:17;26.65;;;14.85;;
71303;SDS011;59091;47.446;19.148;2024-03-06T08:46:43;26.05;;;15.65;;
71303;SDS011;59091;47.446;19.148;2024-03-06T08:49:08;27.17;;;14.85;;
71303;SDS011;59091;47.446;19.148;2024-03-06T08:51:34;27.42;;;14.52;;
71303;SDS011;59091;47.446;19.148;2024-03-06T08:53:59;23.40;;;14.93;;
71303;SDS011;59091;47.446;19.148;2024-03-06T08:56:24;21.63;;;13.10;;
71303;SDS011;59091;47.446;19.148;2024-03-06T08:58:50;25.13;;;12.98;;
71303;SDS011;59091;47.446;19.148;2024-03-06T09:01:16;22.80;;;14.02;;
71303;SDS011;59091;47.446;19.148;2024-03-06T09:03:41;27.15;;;14.73;;
71303;SDS011;59091;47.446;19.148;2024-03-06T09:06:07;21.63;;;13.85;;
71303;SDS011;59091;47.446;19.148;2024-03-06T09:08:32;23.80;;;13.63;;
71303;SDS011;59091;47.446;19.148;2024-03-06T09:10:57;22.95;;;13.85;;
71303;SDS011;59091;47.446;19.148;2024-03-06T09:13:24;21.15;;;13.50;;
71303;SDS011;59091;47.446;19.148;2024-03-06T09:15:50;22.33;;;13.35;;
71303;SDS011;59091;47.446;19.148;2024-03-06T09:18:16;18.55;;;12.73;;
71303;SDS011;59091;47.446;19.148;2024-03-06T09:20:41;25.45;;;13.95;;
71303;SDS011;59091;47.446;19.148;2024-03-06T09:23:08;20.70;;;13.02;;
71303;SDS011;59091;47.446;19.148;2024-03-06T09:25:33;20.52;;;13.93;;
71303;SDS011;59091;47.446;19.148;2024-03-06T09:27:59;19.33;;;13.32;;
71303;SDS011;59091;47.446;19.148;2024-03-06T09:30:25;20.73;;;14.02;;
71303;SDS011;59091;47.446;19.148;2024-03-06T09:32:51;22.85;;;14.20;;
71303;SDS011;59091;47.446;19.148;2024-03-06T09:35:17;20.67;;;14.43;;
71303;SDS011;59091;47.446;19.148;2024-03-06T09:37:44;22.00;;;13.30;;
71303;SDS011;59091;47.446;19.148;2024-03-06T09:40:11;20.15;;;13.07;;
71303;SDS011;59091;47.446;19.148;2024-03-06T09:42:45;21.20;;;13.00;;
71303;SDS011;59091;47.446;19.148;2024-03-06T09:45:11;20.15;;;13.38;;
71303;SDS011;59091;47.446;19.148;2024-03-06T09:47:36;18.60;;;12.27;;
71303;SDS011;59091;47.446;19.148;2024-03-06T09:50:04;16.88;;;11.30;;
71303;SDS011;59091;47.446;19.148;2024-03-06T09:52:34;17.98;;;11.93;;
71303;SDS011;59091;47.446;19.148;2024-03-06T09:55:01;19.42;;;12.38;;
71303;SDS011;59091;47.446;19.148;2024-03-06T09:57:27;18.30;;;12.30;;
71303;SDS011;59091;47.446;19.148;2024-03-06T09:59:53;21.27;;;12.93;;
71303;SDS011;59091;47.446;19.148;2024-03-06T10:02:43;22.23;;;12.50;;
71303;SDS011;59091;47.446;19.148;2024-03-06T10:05:22;23.65;;;12.50;;
71303;SDS011;59091;47.446;19.148;2024-03-06T10:07:49;19.60;;;10.38;;
71303;SDS011;59091;47.446;19.148;2024-03-06T10:10:16;15.10;;;10.60;;
71303;SDS011;59091;47.446;19.148;2024-03-06T10:12:42;15.15;;;9.48;;
71303;SDS011;59091;47.446;19.148;2024-03-06T10:15:09;15.70;;;9.63;;
71303;SDS011;59091;47.446;19.148;2024-03-06T10:17:37;18.45;;;10.25;;
71303;SDS011;59091;47.446;19.148;2024-03-06T10:22:47;20.55;;;10.20;;
71303;SDS011;59091;47.446;19.148;2024-03-06T10:27:45;25.38;;;10.63;;
71303;SDS011;59091;47.446;19.148;2024-03-06T10:30:10;21.92;;;10.45;;
71303;SDS011;59091;47.446;19.148;2024-03-06T10:32:38;16.65;;;8.90;;
71303;SDS011;59091;47.446;19.148;2024-03-06T10:35:04;21.65;;;9.13;;
71303;SDS011;59091;47.446;19.148;2024-03-06T10:37:31;16.25;;;8.93;;
71303;SDS011;59091;47.446;19.148;2024-03-06T10:39:59;16.33;;;9.77;;
71303;SDS011;59091;47.446;19.148;2024-03-06T10:42:31;14.85;;;9.10;;
71303;SDS011;59091;47.446;19.148;2024-03-06T10:44:58;16.45;;;9.20;;
71303;SDS011;59091;47.446;19.148;2024-03-06T10:47:25;13.02;;;8.50;;
71303;SDS011;59091;47.446;19.148;2024-03-06T10:49:53;13.93;;;8.93;;
71303;SDS011;59091;47.446;19.148;2024-03-06T10:52:20;13.52;;;8.65;;
71303;SDS011;59091;47.446;19.148;2024-03-06T10:54:46;15.95;;;8.35;;
71303;SDS011;59091;47.446;19.148;2024-03-06T10:57:13;14.43;;;8.95;;
71303;SDS011;59091;47.446;19.148;2024-03-06T10:59:39;16.80;;;9.18;;
71303;SDS011;59091;47.446;19.148;2024-03-06T11:02:07;21.02;;;9.88;;
71303;SDS011;59091;47.446;19.148;2024-03-06T11:04:34;14.57;;;8.52;;
71303;SDS011;59091;47.446;19.148;2024-03-06T11:07:01;15.13;;;9.38;;
71303;SDS011;59091;47.446;19.148;2024-03-06T11:09:28;12.63;;;8.80;;
71303;SDS011;59091;47.446;19.148;2024-03-06T11:12:00;14.77;;;9.25;;
71303;SDS011;59091;47.446;19.148;2024-03-06T11:14:27;16.77;;;9.30;;
71303;SDS011;59091;47.446;19.148;2024-03-06T11:17:02;15.23;;;9.30;;
71303;SDS011;59091;47.446;19.148;2024-03-06T11:28:15;11.63;;;8.25;;
71303;SDS011;59091;47.446;19.148;2024-03-06T11:30:45;19.67;;;9.63;;
71303;SDS011;59091;47.446;19.148;2024-03-06T11:33:15;16.65;;;10.18;;
71303;SDS011;59091;47.446;19.148;2024-03-06T11:38:50;18.50;;;10.27;;
71303;SDS011;59091;47.446;19.148;2024-03-06T11:44:16;16.42;;;10.18;;
71303;SDS011;59091;47.446;19.148;2024-03-06T11:49:26;16.27;;;9.98;;
71303;SDS011;59091;47.446;19.148;2024-03-06T11:52:12;17.67;;;10.45;;
71303;SDS011;59091;47.446;19.148;2024-03-06T11:54:37;18.08;;;10.00;;
71303;SDS011;59091;47.446;19.148;2024-03-06T11:57:03;16.70;;;10.07;;
71303;SDS011;59091;47.446;19.148;2024-03-06T11:59:34;16.52;;;10.07;;
71303;SDS011;59091;47.446;19.148;2024-03-06T12:02:01;16.27;;;9.85;;
71303;SDS011;59091;47.446;19.148;2024-03-06T12:04:33;17.02;;;9.48;;
71303;SDS011;59091;47.446;19.148;2024-03-06T12:07:01;17.40;;;9.20;;
71303;SDS011;59091;47.446;19.148;2024-03-06T12:09:34;16.10;;;10.10;;
71303;SDS011;59091;47.446;19.148;2024-03-06T12:12:00;16.77;;;10.38;;
71303;SDS011;59091;47.446;19.148;2024-03-06T12:14:27;17.48;;;10.48;;
71303;SDS011;59091;47.446;19.148;2024-03-06T12:16:56;17.85;;;10.35;;
71303;SDS011;59091;47.446;19.148;2024-03-06T12:19:22;18.65;;;10.00;;
71303;SDS011;59091;47.446;19.148;2024-03-06T12:21:48;19.98;;;10.00;;
71303;SDS011;59091;47.446;19.148;2024-03-06T12:24:15;15.93;;;9.95;;
71303;SDS011;59091;47.446;19.148;2024-03-06T12:26:45;17.73;;;10.63;;
71303;SDS011;59091;47.446;19.148;2024-03-06T12:29:16;17.00;;;10.05;;
71303;SDS011;59091;47.446;19.148;2024-03-06T12:31:42;15.60;;;9.60;;
71303;SDS011;59091;47.446;19.148;2024-03-06T12:34:08;18.08;;;10.48;;
71303;SDS011;59091;47.446;19.148;2024-03-06T12:36:39;16.55;;;10.13;;
71303;SDS011;59091;47.446;19.148;2024-03-06T12:39:05;15.40;;;10.35;;
71303;SDS011;59091;47.446;19.148;2024-03-06T12:41:38;16.02;;;9.35;;
71303;SDS011;59091;47.446;19.148;2024-03-06T12:44:07;20.58;;;10.23;;
71303;SDS011;59091;47.446;19.148;2024-03-06T12:46:32;16.75;;;9.90;;
71303;SDS011;59091;47.446;19.148;2024-03-06T12:48:58;17.20;;;10.02;;
71303;SDS011;59091;47.446;19.148;2024-03-06T12:51:24;16.15;;;9.85;;
71303;SDS011;59091;47.446;19.148;2024-03-06T12:53:49;15.13;;;10.70;;
71303;SDS011;59091;47.446;19.148;2024-03-06T12:56:16;16.85;;;10.30;;
71303;SDS011;59091;47.446;19.148;2024-03-06T12:58:42;15.68;;;9.93;;
71303;SDS011;59091;47.446;19.148;2024-03-06T13:01:07;18.92;;;10.77;;
71303;SDS011;59091;47.446;19.148;2024-03-06T13:03:33;21.10;;;10.10;;
71303;SDS011;59091;47.446;19.148;2024-03-06T13:05:58;21.60;;;10.18;;
71303;SDS011;59091;47.446;19.148;2024-03-06T13:08:24;21.25;;;10.15;;
71303;SDS011;59091;47.446;19.148;2024-03-06T13:10:50;17.83;;;10.65;;
71303;SDS011;59091;47.446;19.148;2024-03-06T13:13:15;13.50;;;10.57;;
71303;SDS011;59091;47.446;19.148;2024-03-06T13:15:40;22.58;;;11.52;;
71303;SDS011;59091;47.446;19.148;2024-03-06T13:18:06;20.17;;;11.70;;
71303;SDS011;59091;47.446;19.148;2024-03-06T13:20:32;20.92;;;11.95;;
71303;SDS011;59091;47.446;19.148;2024-03-06T13:22:58;25.10;;;11.90;;
71303;SDS011;59091;47.446;19.148;2024-03-06T13:25:24;17.42;;;11.57;;
71303;SDS011;59091;47.446;19.148;2024-03-06T13:27:50;20.30;;;12.73;;
71303;SDS011;59091;47.446;19.148;2024-03-06T13:30:22;19.40;;;12.15;;
71303;SDS011;59091;47.446;19.148;2024-03-06T13:32:48;17.13;;;11.27;;
71303;SDS011;59091;47.446;19.148;2024-03-06T13:35:13;15.25;;;11.95;;
71303;SDS011;59091;47.446;19.148;2024-03-06T13:37:39;16.95;;;11.52;;
71303;SDS011;59091;47.446;19.148;2024-03-06T13:40:06;16.25;;;11.75;;
71303;SDS011;59091;47.446;19.148;2024-03-06T13:42:34;17.85;;;12.07;;
71303;SDS011;59091;47.446;19.148;2024-03-06T13:45:00;20.35;;;11.27;;
71303;SDS011;59091;47.446;19.148;2024-03-06T13:47:26;17.48;;;12.10;;
71303;SDS011;59091;47.446;19.148;2024-03-06T13:49:51;21.98;;;11.85;;
71303;SDS011;59091;47.446;19.148;2024-03-06T13:52:17;19.00;;;10.75;;
71303;SDS011;59091;47.446;19.148;2024-03-06T13:54:45;21.15;;;11.30;;
71303;SDS011;59091;47.446;19.148;2024-03-06T13:57:11;19.23;;;10.55;;
71303;SDS011;59091;47.446;19.148;2024-03-06T13:59:37;20.25;;;11.18;;
71303;SDS011;59091;47.446;19.148;2024-03-06T14:02:02;7.85;;;5.70;;
71303;SDS011;59091;47.446;19.148;2024-03-06T14:04:28;7.70;;;3.78;;
71303;SDS011;59091;47.446;19.148;2024-03-06T14:06:55;5.30;;;3.42;;
71303;SDS011;59091;47.446;19.148;2024-03-06T14:09:22;5.75;;;2.53;;
71303;SDS011;59091;47.446;19.148;2024-03-06T14:11:49;4.20;;;3.10;;
71303;SDS011;59091;47.446;19.148;2024-03-06T14:14:15;8.75;;;4.25;;
71303;SDS011;59091;47.446;19.148;2024-03-06T14:16:41;6.60;;;4.22;;
71303;SDS011;59091;47.446;19.148;2024-03-06T14:19:07;7.32;;;4.30;;
71303;SDS011;59091;47.446;19.148;2024-03-06T14:21:33;7.95;;;3.92;;
71303;SDS011;59091;47.446;19.148;2024-03-06T14:24:00;5.47;;;3.38;;
71303;SDS011;59091;47.446;19.148;2024-03-06T14:26:29;7.75;;;3.72;;
71303;SDS011;59091;47.446;19.148;2024-03-06T14:28:58;5.32;;;3.42;;